sensor_id;sensor_type;location;lat;lon;timestamp;temperature;humidity
9116;DHT22;4593;53.652;10.168;2023-06-04T00:00:40;10.20;75.10
9116;DHT22;4593;53.652;10.168;2023-06-04T00:03:06;10.10;75.20
9116;DHT22;4593;53.652;10.168;2023-06-04T00:05:32;10.00;75.40
9116;DHT22;4593;53.652;10.168;2023-06-04T00:07:57;9.90;76.00
9116;DHT22;4593;53.652;10.168;2023-06-04T00:10:23;9.90;76.50
9116;DHT22;4593;53.652;10.168;2023-06-04T00:12:49;9.80;76.90
9116;DHT22;4593;53.652;10.168;2023-06-04T00:15:15;9.80;77.30
9116;DHT22;4593;53.652;10.168;2023-06-04T00:17:42;9.80;77.20
9116;DHT22;4593;53.652;10.168;2023-06-04T00:20:08;9.70;77.60
9116;DHT22;4593;53.652;10.168;2023-06-04T00:22:34;9.60;77.90
9116;DHT22;4593;53.652;10.168;2023-06-04T00:25:00;9.60;78.10
9116;DHT22;4593;53.652;10.168;2023-06-04T00:27:25;9.50;78.50
9116;DHT22;4593;53.652;10.168;2023-06-04T00:29:52;9.50;78.60
9116;DHT22;4593;53.652;10.168;2023-06-04T00:32:17;9.50;78.60
9116;DHT22;4593;53.652;10.168;2023-06-04T00:34:49;9.40;78.80
9116;DHT22;4593;53.652;10.168;2023-06-04T00:37:15;9.40;78.70
9116;DHT22;4593;53.652;10.168;2023-06-04T00:39:40;9.30;78.70
9116;DHT22;4593;53.652;10.168;2023-06-04T00:42:06;9.30;79.10
9116;DHT22;4593;53.652;10.168;2023-06-04T00:44:32;9.20;79.40
9116;DHT22;4593;53.652;10.168;2023-06-04T00:46:59;9.20;79.60
9116;DHT22;4593;53.652;10.168;2023-06-04T00:49:25;9.20;79.90
9116;DHT22;4593;53.652;10.168;2023-06-04T00:51:51;9.20;80.40
9116;DHT22;4593;53.652;10.168;2023-06-04T00:54:16;9.20;80.70
9116;DHT22;4593;53.652;10.168;2023-06-04T00:56:43;9.20;80.70
9116;DHT22;4593;53.652;10.168;2023-06-04T00:59:10;9.20;80.70
9116;DHT22;4593;53.652;10.168;2023-06-04T01:01:58;9.10;80.70
9116;DHT22;4593;53.652;10.168;2023-06-04T01:05:11;9.10;80.80
9116;DHT22;4593;53.652;10.168;2023-06-04T01:07:39;9.00;80.90
9116;DHT22;4593;53.652;10.168;2023-06-04T01:10:15;9.00;80.80
9116;DHT22;4593;53.652;10.168;2023-06-04T01:12:42;9.00;81.10
9116;DHT22;4593;53.652;10.168;2023-06-04T01:15:09;8.90;81.30
9116;DHT22;4593;53.652;10.168;2023-06-04T01:17:46;8.90;81.30
9116;DHT22;4593;53.652;10.168;2023-06-04T01:20:41;8.90;81.60
9116;DHT22;4593;53.652;10.168;2023-06-04T01:26:11;8.90;81.90
9116;DHT22;4593;53.652;10.168;2023-06-04T01:28:38;8.90;82.10
9116;DHT22;4593;53.652;10.168;2023-06-04T01:31:05;8.80;82.20
9116;DHT22;4593;53.652;10.168;2023-06-04T01:33:33;8.70;82.30
9116;DHT22;4593;53.652;10.168;2023-06-04T01:36:00;8.80;82.20
9116;DHT22;4593;53.652;10.168;2023-06-04T01:38:27;8.70;82.50
9116;DHT22;4593;53.652;10.168;2023-06-04T01:40:52;8.70;82.40
9116;DHT22;4593;53.652;10.168;2023-06-04T01:43:22;8.70;82.20
9116;DHT22;4593;53.652;10.168;2023-06-04T01:45:48;8.60;82.20
9116;DHT22;4593;53.652;10.168;2023-06-04T01:48:14;8.60;82.30
9116;DHT22;4593;53.652;10.168;2023-06-04T01:50:39;8.60;82.60
9116;DHT22;4593;53.652;10.168;2023-06-04T01:53:05;8.50;82.90
9116;DHT22;4593;53.652;10.168;2023-06-04T01:55:31;8.50;82.90
9116;DHT22;4593;53.652;10.168;2023-06-04T01:57:59;8.50;82.80
9116;DHT22;4593;53.652;10.168;2023-06-04T02:00:25;8.40;83.00
9116;DHT22;4593;53.652;10.168;2023-06-04T02:02:51;8.40;82.60
9116;DHT22;4593;53.652;10.168;2023-06-04T02:05:17;8.30;82.70
9116;DHT22;4593;53.652;10.168;2023-06-04T02:07:44;8.30;82.80
9116;DHT22;4593;53.652;10.168;2023-06-04T02:10:17;8.30;83.00
9116;DHT22;4593;53.652;10.168;2023-06-04T02:12:58;8.30;83.00
9116;DHT22;4593;53.652;10.168;2023-06-04T02:15:25;8.30;83.20
9116;DHT22;4593;53.652;10.168;2023-06-04T02:17:54;8.30;83.60
9116;DHT22;4593;53.652;10.168;2023-06-04T02:20:20;8.30;83.30
9116;DHT22;4593;53.652;10.168;2023-06-04T02:22:46;8.30;83.30
9116;DHT22;4593;53.652;10.168;2023-06-04T02:25:13;8.20;83.50
9116;DHT22;4593;53.652;10.168;2023-06-04T02:27:38;8.20;83.50
9116;DHT22;4593;53.652;10.168;2023-06-04T02:30:05;8.10;83.70
9116;DHT22;4593;53.652;10.168;2023-06-04T02:32:31;8.10;83.90
9116;DHT22;4593;53.652;10.168;2023-06-04T02:34:59;8.10;84.20
9116;DHT22;4593;53.652;10.168;2023-06-04T02:37:24;8.10;84.30
9116;DHT22;4593;53.652;10.168;2023-06-04T02:39:50;8.00;84.00
9116;DHT22;4593;53.652;10.168;2023-06-04T02:42:16;8.00;83.90
9116;DHT22;4593;53.652;10.168;2023-06-04T02:44:41;8.00;84.00
9116;DHT22;4593;53.652;10.168;2023-06-04T02:47:07;8.00;84.00
9116;DHT22;4593;53.652;10.168;2023-06-04T02:49:33;8.00;84.20
9116;DHT22;4593;53.652;10.168;2023-06-04T02:51:59;8.00;84.40
9116;DHT22;4593;53.652;10.168;2023-06-04T02:54:25;8.00;84.60
9116;DHT22;4593;53.652;10.168;2023-06-04T02:56:50;8.00;84.30
9116;DHT22;4593;53.652;10.168;2023-06-04T02:59:16;8.10;84.00
9116;DHT22;4593;53.652;10.168;2023-06-04T03:01:43;8.10;83.80
9116;DHT22;4593;53.652;10.168;2023-06-04T03:04:09;8.10;83.70
9116;DHT22;4593;53.652;10.168;2023-06-04T03:06:36;8.10;83.50
9116;DHT22;4593;53.652;10.168;2023-06-04T03:09:03;8.10;83.80
9116;DHT22;4593;53.652;10.168;2023-06-04T03:11:29;8.10;83.80
9116;DHT22;4593;53.652;10.168;2023-06-04T03:13:55;8.10;83.60
9116;DHT22;4593;53.652;10.168;2023-06-04T03:16:21;8.20;83.80
9116;DHT22;4593;53.652;10.168;2023-06-04T03:18:47;8.20;83.40
9116;DHT22;4593;53.652;10.168;2023-06-04T03:21:12;8.30;82.80
9116;DHT22;4593;53.652;10.168;2023-06-04T03:23:39;8.20;82.90
9116;DHT22;4593;53.652;10.168;2023-06-04T03:26:05;8.30;83.00
9116;DHT22;4593;53.652;10.168;2023-06-04T03:28:32;8.30;82.80
9116;DHT22;4593;53.652;10.168;2023-06-04T03:30:58;8.30;82.70
9116;DHT22;4593;53.652;10.168;2023-06-04T03:33:24;8.30;82.80
9116;DHT22;4593;53.652;10.168;2023-06-04T03:35:51;8.30;82.70
9116;DHT22;4593;53.652;10.168;2023-06-04T03:38:18;8.40;82.60
9116;DHT22;4593;53.652;10.168;2023-06-04T03:40:44;8.40;82.60
9116;DHT22;4593;53.652;10.168;2023-06-04T03:43:11;8.40;82.70
9116;DHT22;4593;53.652;10.168;2023-06-04T03:45:37;8.50;82.40
9116;DHT22;4593;53.652;10.168;2023-06-04T03:48:02;8.50;82.50
9116;DHT22;4593;53.652;10.168;2023-06-04T03:50:28;8.50;82.40
9116;DHT22;4593;53.652;10.168;2023-06-04T03:52:54;8.60;82.40
9116;DHT22;4593;53.652;10.168;2023-06-04T03:55:19;8.60;82.50
9116;DHT22;4593;53.652;10.168;2023-06-04T03:57:45;8.70;82.30
9116;DHT22;4593;53.652;10.168;2023-06-04T04:00:11;8.70;82.10
9116;DHT22;4593;53.652;10.168;2023-06-04T04:02:41;8.80;81.80
9116;DHT22;4593;53.652;10.168;2023-06-04T04:05:07;8.80;81.70
9116;DHT22;4593;53.652;10.168;2023-06-04T04:07:33;8.90;81.50
9116;DHT22;4593;53.652;10.168;2023-06-04T04:09:58;8.90;81.60
9116;DHT22;4593;53.652;10.168;2023-06-04T04:12:24;9.00;81.40
9116;DHT22;4593;53.652;10.168;2023-06-04T04:14:50;9.00;81.00
9116;DHT22;4593;53.652;10.168;2023-06-04T04:17:15;9.00;81.20
9116;DHT22;4593;53.652;10.168;2023-06-04T04:19:43;9.00;81.30
9116;DHT22;4593;53.652;10.168;2023-06-04T04:22:10;9.10;81.20
9116;DHT22;4593;53.652;10.168;2023-06-04T04:24:36;9.30;80.40
9116;DHT22;4593;53.652;10.168;2023-06-04T04:27:04;9.30;79.60
9116;DHT22;4593;53.652;10.168;2023-06-04T04:29:31;9.40;79.00
9116;DHT22;4593;53.652;10.168;2023-06-04T04:31:58;9.40;78.50
9116;DHT22;4593;53.652;10.168;2023-06-04T04:34:36;9.60;78.70
9116;DHT22;4593;53.652;10.168;2023-06-04T04:37:03;9.80;77.10
9116;DHT22;4593;53.652;10.168;2023-06-04T04:39:29;9.70;77.20
9116;DHT22;4593;53.652;10.168;2023-06-04T04:41:55;9.70;77.30
9116;DHT22;4593;53.652;10.168;2023-06-04T04:44:21;9.60;77.90
9116;DHT22;4593;53.652;10.168;2023-06-04T04:46:49;9.70;78.10
9116;DHT22;4593;53.652;10.168;2023-06-04T04:49:15;9.80;78.00
9116;DHT22;4593;53.652;10.168;2023-06-04T04:51:41;10.00;77.30
9116;DHT22;4593;53.652;10.168;2023-06-04T04:54:07;9.90;77.80
9116;DHT22;4593;53.652;10.168;2023-06-04T04:56:33;10.00;78.10
9116;DHT22;4593;53.652;10.168;2023-06-04T04:59:00;10.20;77.80
9116;DHT22;4593;53.652;10.168;2023-06-04T05:01:26;10.00;78.70
9116;DHT22;4593;53.652;10.168;2023-06-04T05:03:52;10.10;79.10
9116;DHT22;4593;53.652;10.168;2023-06-04T05:06:17;10.00;79.70
9116;DHT22;4593;53.652;10.168;2023-06-04T05:08:43;10.10;79.70
9116;DHT22;4593;53.652;10.168;2023-06-04T05:11:09;10.30;79.60
9116;DHT22;4593;53.652;10.168;2023-06-04T05:13:35;10.30;79.70
9116;DHT22;4593;53.652;10.168;2023-06-04T05:16:02;10.20;80.40
9116;DHT22;4593;53.652;10.168;2023-06-04T05:18:33;10.20;80.80
9116;DHT22;4593;53.652;10.168;2023-06-04T05:20:59;10.30;80.70
9116;DHT22;4593;53.652;10.168;2023-06-04T05:23:29;10.40;81.00
9116;DHT22;4593;53.652;10.168;2023-06-04T05:26:00;10.50;80.80
9116;DHT22;4593;53.652;10.168;2023-06-04T05:28:27;10.50;80.70
9116;DHT22;4593;53.652;10.168;2023-06-04T05:30:52;10.50;81.00
9116;DHT22;4593;53.652;10.168;2023-06-04T05:33:24;10.50;81.10
9116;DHT22;4593;53.652;10.168;2023-06-04T05:35:50;10.60;81.10
9116;DHT22;4593;53.652;10.168;2023-06-04T05:38:18;10.80;80.70
9116;DHT22;4593;53.652;10.168;2023-06-04T05:40:46;11.10;79.40
9116;DHT22;4593;53.652;10.168;2023-06-04T05:43:12;11.10;78.80
9116;DHT22;4593;53.652;10.168;2023-06-04T05:45:38;11.00;78.90
9116;DHT22;4593;53.652;10.168;2023-06-04T05:48:05;11.00;79.40
9116;DHT22;4593;53.652;10.168;2023-06-04T05:50:31;11.20;79.20
9116;DHT22;4593;53.652;10.168;2023-06-04T05:52:57;11.50;78.10
9116;DHT22;4593;53.652;10.168;2023-06-04T05:55:23;11.50;77.50
9116;DHT22;4593;53.652;10.168;2023-06-04T05:57:49;11.70;77.50
9116;DHT22;4593;53.652;10.168;2023-06-04T06:00:18;11.90;76.30
9116;DHT22;4593;53.652;10.168;2023-06-04T06:02:44;12.00;76.30
9116;DHT22;4593;53.652;10.168;2023-06-04T06:05:10;12.20;75.50
9116;DHT22;4593;53.652;10.168;2023-06-04T06:07:36;12.50;74.00
9116;DHT22;4593;53.652;10.168;2023-06-04T06:10:03;12.50;73.10
9116;DHT22;4593;53.652;10.168;2023-06-04T06:12:30;12.60;73.00
9116;DHT22;4593;53.652;10.168;2023-06-04T06:14:56;12.60;72.00
9116;DHT22;4593;53.652;10.168;2023-06-04T06:17:21;12.70;72.30
9116;DHT22;4593;53.652;10.168;2023-06-04T06:19:48;12.60;72.10
9116;DHT22;4593;53.652;10.168;2023-06-04T06:22:13;12.50;72.40
9116;DHT22;4593;53.652;10.168;2023-06-04T06:24:39;12.50;72.30
9116;DHT22;4593;53.652;10.168;2023-06-04T06:27:05;12.50;72.80
9116;DHT22;4593;53.652;10.168;2023-06-04T06:29:31;12.80;71.90
9116;DHT22;4593;53.652;10.168;2023-06-04T06:31:57;12.90;71.10
9116;DHT22;4593;53.652;10.168;2023-06-04T06:34:23;13.10;71.00
9116;DHT22;4593;53.652;10.168;2023-06-04T06:36:49;13.40;69.90
9116;DHT22;4593;53.652;10.168;2023-06-04T06:39:15;13.60;68.60
9116;DHT22;4593;53.652;10.168;2023-06-04T06:41:41;14.00;68.70
9116;DHT22;4593;53.652;10.168;2023-06-04T06:44:07;14.20;66.10
9116;DHT22;4593;53.652;10.168;2023-06-04T06:46:33;14.30;66.10
9116;DHT22;4593;53.652;10.168;2023-06-04T06:48:59;14.50;65.70
9116;DHT22;4593;53.652;10.168;2023-06-04T06:51:24;14.60;64.80
9116;DHT22;4593;53.652;10.168;2023-06-04T06:53:50;14.80;64.70
9116;DHT22;4593;53.652;10.168;2023-06-04T06:56:16;14.60;63.40
9116;DHT22;4593;53.652;10.168;2023-06-04T06:58:43;14.90;63.50
9116;DHT22;4593;53.652;10.168;2023-06-04T07:01:10;15.50;62.40
9116;DHT22;4593;53.652;10.168;2023-06-04T07:03:36;15.80;61.70
9116;DHT22;4593;53.652;10.168;2023-06-04T07:06:02;16.30;59.70
9116;DHT22;4593;53.652;10.168;2023-06-04T07:08:27;16.90;59.40
9116;DHT22;4593;53.652;10.168;2023-06-04T07:10:53;17.20;56.40
9116;DHT22;4593;53.652;10.168;2023-06-04T07:13:19;17.40;55.20
9116;DHT22;4593;53.652;10.168;2023-06-04T07:15:45;17.30;55.30
9116;DHT22;4593;53.652;10.168;2023-06-04T07:18:11;17.50;54.50
9116;DHT22;4593;53.652;10.168;2023-06-04T07:20:37;17.60;54.00
9116;DHT22;4593;53.652;10.168;2023-06-04T07:23:03;17.90;52.50
9116;DHT22;4593;53.652;10.168;2023-06-04T07:25:28;17.90;51.40
9116;DHT22;4593;53.652;10.168;2023-06-04T07:27:54;17.40;51.30
9116;DHT22;4593;53.652;10.168;2023-06-04T07:30:24;17.60;53.00
9116;DHT22;4593;53.652;10.168;2023-06-04T07:32:50;17.70;51.70
9116;DHT22;4593;53.652;10.168;2023-06-04T07:35:16;17.40;52.20
9116;DHT22;4593;53.652;10.168;2023-06-04T07:37:42;17.70;54.50
9116;DHT22;4593;53.652;10.168;2023-06-04T07:40:11;18.40;53.40
9116;DHT22;4593;53.652;10.168;2023-06-04T07:42:37;19.00;50.70
9116;DHT22;4593;53.652;10.168;2023-06-04T07:45:03;19.30;49.10
9116;DHT22;4593;53.652;10.168;2023-06-04T07:47:29;19.30;48.50
9116;DHT22;4593;53.652;10.168;2023-06-04T07:49:55;19.30;48.50
9116;DHT22;4593;53.652;10.168;2023-06-04T07:52:20;19.20;47.80
9116;DHT22;4593;53.652;10.168;2023-06-04T07:54:46;18.90;47.20
9116;DHT22;4593;53.652;10.168;2023-06-04T07:57:12;19.10;47.60
9116;DHT22;4593;53.652;10.168;2023-06-04T07:59:38;19.10;47.20
9116;DHT22;4593;53.652;10.168;2023-06-04T08:02:03;19.00;47.30
9116;DHT22;4593;53.652;10.168;2023-06-04T08:04:29;18.80;47.30
9116;DHT22;4593;53.652;10.168;2023-06-04T08:06:55;18.40;48.20
9116;DHT22;4593;53.652;10.168;2023-06-04T08:09:21;18.70;48.80
9116;DHT22;4593;53.652;10.168;2023-06-04T08:11:47;19.10;47.70
9116;DHT22;4593;53.652;10.168;2023-06-04T08:14:13;19.40;47.30
9116;DHT22;4593;53.652;10.168;2023-06-04T08:16:39;19.30;46.90
9116;DHT22;4593;53.652;10.168;2023-06-04T08:19:06;19.10;46.90
9116;DHT22;4593;53.652;10.168;2023-06-04T08:21:33;19.20;46.30
9116;DHT22;4593;53.652;10.168;2023-06-04T08:23:59;19.50;47.30
9116;DHT22;4593;53.652;10.168;2023-06-04T08:26:25;19.90;49.90
9116;DHT22;4593;53.652;10.168;2023-06-04T08:28:52;20.40;46.80
9116;DHT22;4593;53.652;10.168;2023-06-04T08:31:18;20.30;44.30
9116;DHT22;4593;53.652;10.168;2023-06-04T08:33:47;19.80;45.50
9116;DHT22;4593;53.652;10.168;2023-06-04T08:36:14;19.90;44.90
9116;DHT22;4593;53.652;10.168;2023-06-04T08:38:40;19.90;44.90
9116;DHT22;4593;53.652;10.168;2023-06-04T08:41:15;19.70;44.10
9116;DHT22;4593;53.652;10.168;2023-06-04T08:43:42;19.40;44.90
9116;DHT22;4593;53.652;10.168;2023-06-04T08:46:11;19.50;44.40
9116;DHT22;4593;53.652;10.168;2023-06-04T08:48:38;20.20;45.70
9116;DHT22;4593;53.652;10.168;2023-06-04T08:51:06;20.70;42.90
9116;DHT22;4593;53.652;10.168;2023-06-04T08:53:34;20.90;42.20
9116;DHT22;4593;53.652;10.168;2023-06-04T08:56:01;21.10;42.40
9116;DHT22;4593;53.652;10.168;2023-06-04T08:58:31;21.40;43.60
9116;DHT22;4593;53.652;10.168;2023-06-04T09:00:57;21.80;41.30
9116;DHT22;4593;53.652;10.168;2023-06-04T09:03:23;22.00;40.00
9116;DHT22;4593;53.652;10.168;2023-06-04T09:05:50;21.70;39.00
9116;DHT22;4593;53.652;10.168;2023-06-04T09:08:17;21.50;38.30
9116;DHT22;4593;53.652;10.168;2023-06-04T09:10:46;21.00;38.90
9116;DHT22;4593;53.652;10.168;2023-06-04T09:13:17;20.80;40.00
9116;DHT22;4593;53.652;10.168;2023-06-04T09:15:44;20.70;40.80
9116;DHT22;4593;53.652;10.168;2023-06-04T09:18:11;20.70;40.10
9116;DHT22;4593;53.652;10.168;2023-06-04T09:20:37;20.50;41.20
9116;DHT22;4593;53.652;10.168;2023-06-04T09:23:15;20.40;41.50
9116;DHT22;4593;53.652;10.168;2023-06-04T09:25:43;20.10;41.20
9116;DHT22;4593;53.652;10.168;2023-06-04T09:28:11;20.10;41.70
9116;DHT22;4593;53.652;10.168;2023-06-04T09:30:37;20.40;41.80
9116;DHT22;4593;53.652;10.168;2023-06-04T09:33:09;21.10;42.40
9116;DHT22;4593;53.652;10.168;2023-06-04T09:35:35;21.70;41.30
9116;DHT22;4593;53.652;10.168;2023-06-04T09:38:01;22.00;39.00
9116;DHT22;4593;53.652;10.168;2023-06-04T09:40:35;21.70;38.80
9116;DHT22;4593;53.652;10.168;2023-06-04T09:43:02;21.40;38.80
9116;DHT22;4593;53.652;10.168;2023-06-04T09:45:34;21.20;39.50
9116;DHT22;4593;53.652;10.168;2023-06-04T09:48:01;20.80;39.50
9116;DHT22;4593;53.652;10.168;2023-06-04T09:50:29;21.00;42.50
9116;DHT22;4593;53.652;10.168;2023-06-04T09:52:55;21.10;38.60
9116;DHT22;4593;53.652;10.168;2023-06-04T09:55:22;21.30;38.30
9116;DHT22;4593;53.652;10.168;2023-06-04T09:57:49;21.00;38.00
9116;DHT22;4593;53.652;10.168;2023-06-04T10:00:23;21.00;37.00
9116;DHT22;4593;53.652;10.168;2023-06-04T10:02:58;21.00;38.90
9116;DHT22;4593;53.652;10.168;2023-06-04T10:05:26;21.30;37.70
9116;DHT22;4593;53.652;10.168;2023-06-04T10:07:57;21.40;37.40
9116;DHT22;4593;53.652;10.168;2023-06-04T10:10:26;21.30;36.40
9116;DHT22;4593;53.652;10.168;2023-06-04T10:13:05;21.40;39.00
9116;DHT22;4593;53.652;10.168;2023-06-04T10:15:32;21.60;36.30
9116;DHT22;4593;53.652;10.168;2023-06-04T10:18:00;21.60;36.90
9116;DHT22;4593;53.652;10.168;2023-06-04T10:20:27;21.60;36.30
9116;DHT22;4593;53.652;10.168;2023-06-04T10:22:54;21.80;36.70
9116;DHT22;4593;53.652;10.168;2023-06-04T10:25:21;21.80;35.60
9116;DHT22;4593;53.652;10.168;2023-06-04T10:27:46;21.50;35.30
9116;DHT22;4593;53.652;10.168;2023-06-04T10:30:12;21.30;35.80
9116;DHT22;4593;53.652;10.168;2023-06-04T10:32:38;20.80;35.90
9116;DHT22;4593;53.652;10.168;2023-06-04T10:35:05;20.60;37.20
9116;DHT22;4593;53.652;10.168;2023-06-04T10:37:33;20.40;37.00
9116;DHT22;4593;53.652;10.168;2023-06-04T10:39:59;20.80;38.50
9116;DHT22;4593;53.652;10.168;2023-06-04T10:42:25;21.20;37.90
9116;DHT22;4593;53.652;10.168;2023-06-04T10:44:55;21.20;36.50
9116;DHT22;4593;53.652;10.168;2023-06-04T10:47:25;21.10;36.20
9116;DHT22;4593;53.652;10.168;2023-06-04T10:49:53;21.40;36.90
9116;DHT22;4593;53.652;10.168;2023-06-04T10:52:20;21.40;36.80
9116;DHT22;4593;53.652;10.168;2023-06-04T10:54:46;21.40;36.50
9116;DHT22;4593;53.652;10.168;2023-06-04T10:57:18;21.20;36.40
9116;DHT22;4593;53.652;10.168;2023-06-04T10:59:56;21.30;36.10
9116;DHT22;4593;53.652;10.168;2023-06-04T11:02:23;21.40;36.70
9116;DHT22;4593;53.652;10.168;2023-06-04T11:05:05;21.50;36.60
9116;DHT22;4593;53.652;10.168;2023-06-04T11:07:46;21.50;36.80
9116;DHT22;4593;53.652;10.168;2023-06-04T11:10:13;21.30;37.30
9116;DHT22;4593;53.652;10.168;2023-06-04T11:12:46;21.30;37.20
9116;DHT22;4593;53.652;10.168;2023-06-04T11:15:12;21.30;37.50
9116;DHT22;4593;53.652;10.168;2023-06-04T11:17:51;21.60;39.40
9116;DHT22;4593;53.652;10.168;2023-06-04T11:20:18;21.70;38.10
9116;DHT22;4593;53.652;10.168;2023-06-04T11:22:54;21.80;36.50
9116;DHT22;4593;53.652;10.168;2023-06-04T11:25:24;22.00;37.60
9116;DHT22;4593;53.652;10.168;2023-06-04T11:27:53;22.10;35.40
9116;DHT22;4593;53.652;10.168;2023-06-04T11:30:19;22.00;35.30
9116;DHT22;4593;53.652;10.168;2023-06-04T11:32:45;21.70;36.00
9116;DHT22;4593;53.652;10.168;2023-06-04T11:35:11;21.40;37.40
9116;DHT22;4593;53.652;10.168;2023-06-04T11:37:37;21.30;37.40
9116;DHT22;4593;53.652;10.168;2023-06-04T11:40:18;21.30;37.00
9116;DHT22;4593;53.652;10.168;2023-06-04T11:42:45;21.20;38.60
9116;DHT22;4593;53.652;10.168;2023-06-04T11:45:21;21.10;37.80
9116;DHT22;4593;53.652;10.168;2023-06-04T11:47:57;21.00;37.70
9116;DHT22;4593;53.652;10.168;2023-06-04T11:50:27;20.70;37.60
9116;DHT22;4593;53.652;10.168;2023-06-04T11:52:53;20.70;38.50
9116;DHT22;4593;53.652;10.168;2023-06-04T11:55:20;20.70;37.60
9116;DHT22;4593;53.652;10.168;2023-06-04T11:57:47;20.80;38.00
9116;DHT22;4593;53.652;10.168;2023-06-04T12:00:15;20.90;37.90
9116;DHT22;4593;53.652;10.168;2023-06-04T12:02:54;21.00;38.60
9116;DHT22;4593;53.652;10.168;2023-06-04T12:05:28;20.70;38.20
9116;DHT22;4593;53.652;10.168;2023-06-04T12:08:04;20.70;38.70
9116;DHT22;4593;53.652;10.168;2023-06-04T12:10:39;20.90;39.20
9116;DHT22;4593;53.652;10.168;2023-06-04T12:13:06;21.00;38.80
9116;DHT22;4593;53.652;10.168;2023-06-04T12:15:31;21.10;38.40
9116;DHT22;4593;53.652;10.168;2023-06-04T12:17:57;21.10;37.50
9116;DHT22;4593;53.652;10.168;2023-06-04T12:20:34;21.10;38.60
9116;DHT22;4593;53.652;10.168;2023-06-04T12:23:00;21.10;37.80
9116;DHT22;4593;53.652;10.168;2023-06-04T12:25:27;21.00;38.00
9116;DHT22;4593;53.652;10.168;2023-06-04T12:27:53;20.90;37.80
9116;DHT22;4593;53.652;10.168;2023-06-04T12:30:20;20.80;38.10
9116;DHT22;4593;53.652;10.168;2023-06-04T12:32:46;20.80;38.10
9116;DHT22;4593;53.652;10.168;2023-06-04T12:35:11;20.80;38.20
9116;DHT22;4593;53.652;10.168;2023-06-04T12:37:37;20.60;37.80
9116;DHT22;4593;53.652;10.168;2023-06-04T12:40:03;20.60;37.70
9116;DHT22;4593;53.652;10.168;2023-06-04T12:42:32;20.70;38.40
9116;DHT22;4593;53.652;10.168;2023-06-04T12:44:58;20.60;37.50
9116;DHT22;4593;53.652;10.168;2023-06-04T12:47:24;20.50;37.60
9116;DHT22;4593;53.652;10.168;2023-06-04T12:49:49;20.60;37.70
9116;DHT22;4593;53.652;10.168;2023-06-04T12:52:16;20.60;38.90
9116;DHT22;4593;53.652;10.168;2023-06-04T12:54:43;20.90;38.90
9116;DHT22;4593;53.652;10.168;2023-06-04T12:57:09;21.20;38.50
9116;DHT22;4593;53.652;10.168;2023-06-04T12:59:36;21.30;37.50
9116;DHT22;4593;53.652;10.168;2023-06-04T13:02:01;21.20;36.70
9116;DHT22;4593;53.652;10.168;2023-06-04T13:04:27;21.10;37.00
9116;DHT22;4593;53.652;10.168;2023-06-04T13:06:53;20.90;36.70
9116;DHT22;4593;53.652;10.168;2023-06-04T13:09:24;20.70;36.30
9116;DHT22;4593;53.652;10.168;2023-06-04T13:11:50;20.80;36.40
9116;DHT22;4593;53.652;10.168;2023-06-04T13:14:16;20.80;36.80
9116;DHT22;4593;53.652;10.168;2023-06-04T13:16:42;20.80;36.30
9116;DHT22;4593;53.652;10.168;2023-06-04T13:19:08;21.00;36.40
9116;DHT22;4593;53.652;10.168;2023-06-04T13:21:35;21.10;36.50
9116;DHT22;4593;53.652;10.168;2023-06-04T13:24:01;21.10;36.80
9116;DHT22;4593;53.652;10.168;2023-06-04T13:26:27;21.20;36.40
9116;DHT22;4593;53.652;10.168;2023-06-04T13:28:53;21.30;36.50
9116;DHT22;4593;53.652;10.168;2023-06-04T13:31:18;21.40;36.90
9116;DHT22;4593;53.652;10.168;2023-06-04T13:33:44;21.50;36.00
9116;DHT22;4593;53.652;10.168;2023-06-04T13:36:10;21.40;36.60
9116;DHT22;4593;53.652;10.168;2023-06-04T13:38:36;21.40;36.80
9116;DHT22;4593;53.652;10.168;2023-06-04T13:41:01;21.50;36.50
9116;DHT22;4593;53.652;10.168;2023-06-04T13:43:27;21.50;36.60
9116;DHT22;4593;53.652;10.168;2023-06-04T13:45:53;21.50;36.00
9116;DHT22;4593;53.652;10.168;2023-06-04T13:48:18;21.50;35.60
9116;DHT22;4593;53.652;10.168;2023-06-04T13:50:44;21.40;35.60
9116;DHT22;4593;53.652;10.168;2023-06-04T13:53:10;21.30;35.90
9116;DHT22;4593;53.652;10.168;2023-06-04T13:55:39;21.20;37.00
9116;DHT22;4593;53.652;10.168;2023-06-04T13:58:05;21.30;36.40
9116;DHT22;4593;53.652;10.168;2023-06-04T14:00:30;21.30;37.30
9116;DHT22;4593;53.652;10.168;2023-06-04T14:02:57;21.30;37.80
9116;DHT22;4593;53.652;10.168;2023-06-04T14:05:24;21.40;37.00
9116;DHT22;4593;53.652;10.168;2023-06-04T14:07:53;21.30;37.00
9116;DHT22;4593;53.652;10.168;2023-06-04T14:10:19;21.40;36.90
9116;DHT22;4593;53.652;10.168;2023-06-04T14:12:44;21.40;36.60
9116;DHT22;4593;53.652;10.168;2023-06-04T14:15:11;21.50;37.70
9116;DHT22;4593;53.652;10.168;2023-06-04T14:17:40;21.60;38.10
9116;DHT22;4593;53.652;10.168;2023-06-04T14:20:06;21.70;37.90
9116;DHT22;4593;53.652;10.168;2023-06-04T14:22:37;21.50;39.00
9116;DHT22;4593;53.652;10.168;2023-06-04T14:25:04;21.60;38.80
9116;DHT22;4593;53.652;10.168;2023-06-04T14:27:30;21.40;38.70
9116;DHT22;4593;53.652;10.168;2023-06-04T14:29:56;21.30;38.80
9116;DHT22;4593;53.652;10.168;2023-06-04T14:32:22;21.40;39.30
9116;DHT22;4593;53.652;10.168;2023-06-04T14:34:48;21.50;39.40
9116;DHT22;4593;53.652;10.168;2023-06-04T14:37:13;21.50;39.70
9116;DHT22;4593;53.652;10.168;2023-06-04T14:39:39;21.60;39.60
9116;DHT22;4593;53.652;10.168;2023-06-04T14:42:05;21.60;38.70
9116;DHT22;4593;53.652;10.168;2023-06-04T14:44:31;21.40;38.80
9116;DHT22;4593;53.652;10.168;2023-06-04T14:46:58;21.50;38.90
9116;DHT22;4593;53.652;10.168;2023-06-04T14:49:23;21.60;39.20
9116;DHT22;4593;53.652;10.168;2023-06-04T14:51:49;21.60;39.50
9116;DHT22;4593;53.652;10.168;2023-06-04T14:54:15;21.50;39.90
9116;DHT22;4593;53.652;10.168;2023-06-04T14:56:41;21.70;40.00
9116;DHT22;4593;53.652;10.168;2023-06-04T14:59:07;21.60;39.60
9116;DHT22;4593;53.652;10.168;2023-06-04T15:01:39;21.70;39.50
9116;DHT22;4593;53.652;10.168;2023-06-04T15:04:06;21.70;39.50
9116;DHT22;4593;53.652;10.168;2023-06-04T15:06:33;21.80;39.40
9116;DHT22;4593;53.652;10.168;2023-06-04T15:08:58;21.50;39.00
9116;DHT22;4593;53.652;10.168;2023-06-04T15:11:24;21.40;39.10
9116;DHT22;4593;53.652;10.168;2023-06-04T15:13:52;21.60;38.90
9116;DHT22;4593;53.652;10.168;2023-06-04T15:16:17;21.40;39.30
9116;DHT22;4593;53.652;10.168;2023-06-04T15:18:43;21.40;39.70
9116;DHT22;4593;53.652;10.168;2023-06-04T15:21:09;21.30;40.10
9116;DHT22;4593;53.652;10.168;2023-06-04T15:23:35;21.40;39.40
9116;DHT22;4593;53.652;10.168;2023-06-04T15:26:01;21.50;39.50
9116;DHT22;4593;53.652;10.168;2023-06-04T15:28:26;21.70;39.20
9116;DHT22;4593;53.652;10.168;2023-06-04T15:30:52;21.80;39.50
9116;DHT22;4593;53.652;10.168;2023-06-04T15:33:18;21.70;39.70
9116;DHT22;4593;53.652;10.168;2023-06-04T15:35:43;21.50;39.90
9116;DHT22;4593;53.652;10.168;2023-06-04T15:38:09;21.60;40.70
9116;DHT22;4593;53.652;10.168;2023-06-04T15:40:35;21.80;40.90
9116;DHT22;4593;53.652;10.168;2023-06-04T15:43:00;22.00;40.10
9116;DHT22;4593;53.652;10.168;2023-06-04T15:45:26;22.10;39.70
9116;DHT22;4593;53.652;10.168;2023-06-04T15:47:52;22.00;39.60
9116;DHT22;4593;53.652;10.168;2023-06-04T15:50:18;22.00;40.00
9116;DHT22;4593;53.652;10.168;2023-06-04T15:52:45;21.80;39.50